createdAt,value
2023-04-22T00:04:05.043Z,98480.06
2023-04-22T00:08:57.015Z,98468.91
2023-04-22T00:13:48.613Z,98473.91
2023-04-22T00:18:40.693Z,98464.63
2023-04-22T00:23:32.522Z,98453.09
2023-04-22T00:28:24.343Z,98458.94
2023-04-22T00:33:15.941Z,98455.44
2023-04-22T00:38:07.612Z,98439.09
2023-04-22T00:43:00.414Z,98440.75
2023-04-22T00:47:52.565Z,98442.84
2023-04-22T00:52:44.537Z,98437.06
2023-04-22T00:57:36.447Z,98431.91
2023-04-22T01:02:29.484Z,98429.66
2023-04-22T01:07:21.798Z,98440.28
2023-04-22T01:12:13.458Z,98439.97
2023-04-22T01:17:05.195Z,98421.78
2023-04-22T01:21:58.093Z,98408.41
2023-04-22T01:26:50.058Z,98406.38
2023-04-22T01:31:41.958Z,98396.28
2023-04-22T01:36:33.967Z,98389.91
2023-04-22T01:41:25.798Z,98388.31
2023-04-22T01:46:18.347Z,98383.38
2023-04-22T01:51:09.989Z,98380.91
2023-04-22T01:56:02.154Z,98385.47
2023-04-22T02:00:53.990Z,98390.41
2023-04-22T02:05:45.636Z,98365.50
2023-04-22T02:10:37.302Z,98358.03
2023-04-22T02:15:28.990Z,98367.31
2023-04-22T02:20:20.623Z,98372.03
2023-04-22T02:25:12.307Z,98365.31
2023-04-22T02:30:04.625Z,98349.06
2023-04-22T02:34:56.251Z,98338.00
2023-04-22T02:39:47.838Z,98336.88
2023-04-22T02:44:39.640Z,98337.25
2023-04-22T02:49:31.252Z,98316.66
2023-04-22T02:54:22.856Z,98314.34
2023-04-22T02:59:14.650Z,98312.00
2023-04-22T03:04:06.469Z,98298.06
2023-04-22T03:08:58.251Z,98303.22
2023-04-22T03:13:49.881Z,98293.88
2023-04-22T03:18:41.615Z,98283.44
2023-04-22T03:23:33.752Z,98276.44
2023-04-22T03:28:25.350Z,98271.41
2023-04-22T03:33:17.157Z,98243.41
2023-04-22T03:38:08.898Z,98246.69
2023-04-22T03:43:00.488Z,98233.56
2023-04-22T03:47:52.177Z,98229.00
2023-04-22T03:52:44.003Z,98221.75
2023-04-22T03:57:35.913Z,98215.53
2023-04-22T04:02:27.816Z,98216.47
2023-04-22T04:07:19.589Z,98218.31
2023-04-22T04:12:11.165Z,98200.13
2023-04-22T04:17:03.692Z,98199.91
2023-04-22T04:21:55.719Z,98197.22
2023-04-22T04:26:47.424Z,98191.81
2023-04-22T04:31:39.272Z,98176.13
2023-04-22T04:36:32.891Z,98176.34
2023-04-22T04:41:27.087Z,98176.56
2023-04-22T04:46:20.942Z,98166.25
2023-04-22T04:51:13.075Z,98161.34
2023-04-22T04:56:04.970Z,98156.66
2023-04-22T05:00:56.598Z,98165.06
2023-04-22T05:05:49.128Z,98166.09
2023-04-22T05:10:42.437Z,98162.03
2023-04-22T05:15:34.334Z,98162.84
2023-04-22T05:20:26.190Z,98159.31
2023-04-22T05:25:18.033Z,98167.75
2023-04-22T05:30:10.556Z,98156.97
2023-04-22T05:35:03.092Z,98164.84
2023-04-22T05:39:54.802Z,98169.41
2023-04-22T05:44:46.437Z,98155.78
2023-04-22T05:49:38.251Z,98149.94
2023-04-22T05:54:30.069Z,98145.53
2023-04-22T05:59:21.899Z,98145.09
2023-04-22T06:04:13.953Z,98144.06
2023-04-22T06:09:07.287Z,98159.06
2023-04-22T06:13:58.937Z,98159.34
2023-04-22T06:18:50.645Z,98146.66
2023-04-22T06:23:43.337Z,98151.63
2023-04-22T06:28:35.071Z,98126.81
2023-04-22T06:33:27.004Z,98121.50
2023-04-22T06:38:18.640Z,98121.66
2023-04-22T06:43:10.415Z,98120.91
2023-04-22T06:48:02.140Z,98121.75
2023-04-22T06:52:54.555Z,98111.88
2023-04-22T06:57:46.193Z,98118.44
2023-04-22T07:02:37.992Z,98122.75
2023-04-22T07:07:29.837Z,98117.63
2023-04-22T07:12:21.511Z,98121.69
2023-04-22T07:17:13.159Z,98111.00
2023-04-22T07:22:05.117Z,98116.47
2023-04-22T07:26:56.739Z,98113.97
2023-04-22T07:31:48.501Z,98121.00
2023-04-22T07:36:40.474Z,98110.94
2023-04-22T07:41:32.121Z,98115.94
2023-04-22T07:46:23.903Z,98102.94
2023-04-22T07:51:15.600Z,98102.16
2023-04-22T07:56:07.177Z,98103.50
2023-04-22T08:00:58.891Z,98102.34
2023-04-22T08:05:50.570Z,98098.63
2023-04-22T08:10:42.263Z,98098.25
2023-04-22T08:15:33.957Z,98092.81
2023-04-22T08:20:26.086Z,98086.00
2023-04-22T08:25:17.793Z,98085.38
2023-04-22T08:30:10.049Z,98083.66
2023-04-22T08:35:04.743Z,98081.38
2023-04-22T08:39:57.129Z,98080.13
2023-04-22T08:44:49.107Z,98081.28
2023-04-22T08:49:41.147Z,98092.16
2023-04-22T08:54:34.409Z,98080.25
2023-04-22T08:59:26.385Z,98077.41
2023-04-22T09:04:19.007Z,98076.84
2023-04-22T09:09:10.748Z,98066.09
2023-04-22T09:14:06.067Z,98056.81
2023-04-22T09:18:58.510Z,98049.44
2023-04-22T09:23:53.911Z,98049.94
2023-04-22T09:28:56.569Z,98055.97
2023-04-22T09:33:58.552Z,98059.38
2023-04-22T09:39:02.142Z,98059.56
2023-04-22T09:43:56.271Z,98056.03
2023-04-22T09:48:50.505Z,98043.91
2023-04-22T09:53:42.120Z,98036.63
2023-04-22T09:58:39.538Z,98052.88
2023-04-22T10:03:32.005Z,98041.53
2023-04-22T10:08:23.809Z,98040.41
2023-04-22T10:13:15.838Z,98037.47
2023-04-22T10:18:10.883Z,98048.81
2023-04-22T10:23:05.324Z,98031.94
2023-04-22T10:28:09.000Z,98033.34
2023-04-22T10:33:27.759Z,98033.16
2023-04-22T10:38:19.575Z,98028.75
2023-04-22T10:43:12.873Z,98030.22
2023-04-22T10:48:05.113Z,98028.78
2023-04-22T10:53:03.185Z,98035.22
2023-04-22T10:57:54.801Z,98032.47
2023-04-22T11:02:51.219Z,98040.91
2023-04-22T11:07:43.081Z,98027.78
2023-04-22T11:12:42.169Z,98039.69
2023-04-22T11:17:34.905Z,98031.44
2023-04-22T11:22:26.924Z,98022.94
2023-04-22T11:27:25.751Z,98032.91
2023-04-22T11:32:17.378Z,98033.00
2023-04-22T11:37:09.096Z,98028.06
2023-04-22T11:42:00.981Z,98022.44
2023-04-22T11:46:52.561Z,98020.75
2023-04-22T11:51:55.373Z,98017.78
2023-04-22T11:56:49.000Z,98021.53
2023-04-22T12:01:42.202Z,98010.41
2023-04-22T12:06:33.844Z,98002.56
2023-04-22T12:11:25.493Z,98002.38
2023-04-22T12:16:20.663Z,98003.72
2023-04-22T12:21:14.198Z,97998.75
2023-04-22T12:26:05.844Z,98005.25
2023-04-22T12:30:57.492Z,97998.78
2023-04-22T12:35:52.535Z,98009.19
2023-04-22T12:40:44.286Z,98014.38
2023-04-22T12:45:36.019Z,98007.50
2023-04-22T12:50:27.742Z,98018.25
2023-04-22T12:55:20.931Z,98014.72
2023-04-22T13:00:16.267Z,98009.56
2023-04-22T13:05:08.809Z,98013.63
2023-04-22T13:10:00.609Z,98013.63
2023-04-22T13:14:52.224Z,97997.34
2023-04-22T13:19:44.051Z,98005.50
2023-04-22T13:24:35.721Z,98003.56
2023-04-22T13:29:27.376Z,98000.53
2023-04-22T13:34:19.015Z,97991.19
2023-04-22T13:39:11.513Z,98003.88
2023-04-22T13:44:04.514Z,97994.34
2023-04-22T13:48:56.771Z,98000.63
2023-04-22T13:53:48.689Z,97999.34
2023-04-22T13:58:41.127Z,97998.72
2023-04-22T14:03:33.026Z,97997.63
2023-04-22T14:08:24.729Z,98001.09
2023-04-22T14:13:16.411Z,97989.97
2023-04-22T14:18:08.314Z,97991.63
2023-04-22T14:23:00.997Z,97987.75
2023-04-22T14:27:52.585Z,97990.84
2023-04-22T14:32:44.425Z,97990.44
2023-04-22T14:37:36.290Z,97994.97
2023-04-22T14:42:28.230Z,97989.28
2023-04-22T14:47:19.865Z,97980.59
2023-04-22T14:52:11.690Z,97978.38
2023-04-22T14:57:04.182Z,97976.56
2023-04-22T15:01:57.008Z,97972.50
2023-04-22T15:06:48.772Z,97980.03
2023-04-22T15:11:41.053Z,97977.09
2023-04-22T15:16:32.748Z,97974.97
2023-04-22T15:21:24.404Z,97964.63
2023-04-22T15:26:16.521Z,97964.00
2023-04-22T15:31:08.139Z,97965.63
2023-04-22T15:35:59.783Z,97958.78
2023-04-22T15:40:51.407Z,97964.81
2023-04-22T15:45:43.202Z,97975.03
2023-04-22T15:50:34.946Z,97959.41
2023-04-22T15:55:26.610Z,97962.38
2023-04-22T16:00:19.462Z,97965.97
2023-04-22T16:05:11.915Z,97955.16
2023-04-22T16:10:04.423Z,97951.56
2023-04-22T16:14:56.133Z,97963.59
2023-04-22T16:19:47.855Z,97953.63
2023-04-22T16:24:40.551Z,97947.41
2023-04-22T16:29:33.379Z,97954.59
2023-04-22T16:34:24.966Z,97953.28
2023-04-22T16:39:17.044Z,97951.69
2023-04-22T16:44:09.536Z,97951.16
2023-04-22T16:49:01.379Z,97948.41
2023-04-22T16:53:53.039Z,97942.78
2023-04-22T16:58:44.759Z,97939.78
2023-04-22T17:03:36.624Z,97930.44
2023-04-22T17:08:29.051Z,97930.72
2023-04-22T17:13:20.928Z,97923.16
2023-04-22T17:18:14.319Z,97924.72
2023-04-22T17:23:06.114Z,97920.41
2023-04-22T17:27:57.851Z,97921.00
2023-04-22T17:32:49.843Z,97919.47
2023-04-22T17:37:41.529Z,97907.88
2023-04-22T17:42:44.665Z,97911.69
2023-04-22T17:47:37.725Z,97910.72
2023-04-22T17:52:29.550Z,97902.88
2023-04-22T17:57:21.189Z,97906.22
2023-04-22T18:02:13.140Z,97898.88
2023-04-22T18:07:04.861Z,97899.25
2023-04-22T18:11:59.156Z,97898.41
2023-04-22T18:16:50.904Z,97906.06
2023-04-22T18:21:56.914Z,97896.03
2023-04-22T18:26:52.784Z,97896.63
2023-04-22T18:31:44.633Z,97892.03
2023-04-22T18:36:36.282Z,97896.16
2023-04-22T18:41:27.898Z,97893.97
2023-04-22T18:46:19.558Z,97889.88
2023-04-22T18:51:11.379Z,97887.72
2023-04-22T18:56:03.064Z,97889.38
2023-04-22T19:00:54.682Z,97899.44
2023-04-22T19:05:46.501Z,97890.75
2023-04-22T19:10:38.359Z,97884.00
2023-04-22T19:15:30.018Z,97886.72
2023-04-22T19:20:21.752Z,97892.47
2023-04-22T19:25:13.409Z,97884.31
2023-04-22T19:30:06.874Z,97882.97
2023-04-22T19:34:58.557Z,97876.41
2023-04-22T19:39:50.222Z,97884.56
2023-04-22T19:44:46.605Z,97884.53
2023-04-22T19:49:39.026Z,97879.09
2023-04-22T19:54:31.882Z,97886.97
2023-04-22T19:59:23.945Z,97892.69
2023-04-22T20:04:16.060Z,97900.06
2023-04-22T20:09:10.429Z,97909.84
2023-04-22T20:14:03.236Z,97911.22
2023-04-22T20:18:55.376Z,97903.38
2023-04-22T20:23:48.340Z,97911.50
2023-04-22T20:28:48.232Z,97912.28
2023-04-22T20:33:40.361Z,97903.25
2023-04-22T20:38:36.912Z,97899.97
2023-04-22T20:43:28.563Z,97901.34
2023-04-22T20:48:20.287Z,97888.84
2023-04-22T20:53:12.565Z,97889.97
2023-04-22T20:58:04.251Z,97880.75
2023-04-22T21:02:56.345Z,97888.03
2023-04-22T21:07:52.443Z,97886.94
2023-04-22T21:12:44.501Z,97881.13
2023-04-22T21:17:40.818Z,97879.22
2023-04-22T21:22:33.014Z,97878.63
2023-04-22T21:27:24.939Z,97873.97
2023-04-22T21:32:17.150Z,97865.84
2023-04-22T21:37:09.443Z,97868.53
2023-04-22T21:42:02.546Z,97853.34
2023-04-22T21:46:54.291Z,97859.91
2023-04-22T21:51:46.082Z,97853.69
2023-04-22T21:56:37.864Z,97856.41
2023-04-22T22:01:29.429Z,97843.09
2023-04-22T22:06:21.171Z,97844.75
2023-04-22T22:11:23.960Z,97836.56
2023-04-22T22:16:21.812Z,97840.66
2023-04-22T22:21:13.425Z,97830.59
2023-04-22T22:26:05.134Z,97825.38
2023-04-22T22:31:02.347Z,97830.50
2023-04-22T22:35:54.199Z,97821.47
2023-04-22T22:40:45.794Z,97810.03
2023-04-22T22:45:37.414Z,97811.63
2023-04-22T22:50:29.077Z,97815.41
2023-04-22T22:55:20.906Z,97803.72
2023-04-22T23:00:13.782Z,97811.28
2023-04-22T23:05:10.569Z,97805.31
2023-04-22T23:10:02.608Z,97793.09
2023-04-22T23:14:54.291Z,97799.28
2023-04-22T23:19:46.411Z,97797.09
2023-04-22T23:24:39.109Z,97783.56
2023-04-22T23:29:31.557Z,97782.50
2023-04-22T23:34:24.085Z,97786.28
2023-04-22T23:39:15.792Z,97776.50
2023-04-22T23:44:07.440Z,97761.03
2023-04-22T23:48:59.515Z,97759.13
2023-04-22T23:53:51.073Z,97755.25
2023-04-22T23:58:42.925Z,97759.59
